createdAt,value
2022-12-20T00:01:24.107Z,0.67
2022-12-20T00:03:52.540Z,0.67
2022-12-20T00:06:20.396Z,0.68
2022-12-20T00:08:47.350Z,0.71
2022-12-20T00:11:14.356Z,0.72
2022-12-20T00:13:40.937Z,0.74
2022-12-20T00:16:07.547Z,0.73
2022-12-20T00:18:35.007Z,0.72
2022-12-20T00:21:02.852Z,0.73
2022-12-20T00:23:29.962Z,0.74
2022-12-20T00:26:08.350Z,0.77
2022-12-20T00:28:36.198Z,0.80
2022-12-20T00:31:04.412Z,0.82
2022-12-20T00:33:31.274Z,0.78
2022-12-20T00:35:58.359Z,0.77
2022-12-20T00:38:25.724Z,0.74
2022-12-20T00:41:07.074Z,0.68
2022-12-20T00:43:34.710Z,0.65
2022-12-20T00:46:01.457Z,0.62
2022-12-20T00:48:29.075Z,0.59
2022-12-20T00:51:04.831Z,0.56
2022-12-20T00:53:32.399Z,0.56
2022-12-20T00:55:59.387Z,0.59
2022-12-20T00:58:26.993Z,0.61
2022-12-20T01:00:56.491Z,0.64
2022-12-20T01:03:24.543Z,0.68
2022-12-20T01:05:55.580Z,0.71
2022-12-20T01:08:23.465Z,0.70
2022-12-20T01:11:04.217Z,0.61
2022-12-20T01:13:32.123Z,0.62
2022-12-20T01:16:05.656Z,0.62
2022-12-20T01:18:32.354Z,0.67
2022-12-20T01:21:07.464Z,0.72
2022-12-20T01:23:34.142Z,0.70
2022-12-20T01:26:02.532Z,0.72
2022-12-20T01:28:29.444Z,0.69
2022-12-20T01:30:56.102Z,0.70
2022-12-20T01:33:23.248Z,0.70
2022-12-20T01:36:05.229Z,0.75
2022-12-20T01:38:33.051Z,0.74
2022-12-20T01:40:59.749Z,0.73
2022-12-20T01:43:46.367Z,0.77
2022-12-20T01:46:13.103Z,0.80
2022-12-20T01:48:42.448Z,0.80
2022-12-20T01:51:09.628Z,0.81
2022-12-20T01:53:36.470Z,0.82
2022-12-20T01:56:06.988Z,0.80
2022-12-20T01:58:35.851Z,0.82
2022-12-20T02:01:02.468Z,0.85
2022-12-20T02:03:30.753Z,0.88
2022-12-20T02:05:57.506Z,0.90
2022-12-20T02:08:24.126Z,0.94
2022-12-20T02:10:59.508Z,0.94
2022-12-20T02:14:08.696Z,0.92
2022-12-20T02:16:43.970Z,0.92
2022-12-20T02:19:42.230Z,0.92
2022-12-20T02:22:30.741Z,0.95
2022-12-20T02:25:31.426Z,0.96
2022-12-20T02:28:19.670Z,0.98
2022-12-20T02:30:50.565Z,0.97
2022-12-20T02:33:20.259Z,1.01
2022-12-20T02:35:46.856Z,0.99
2022-12-20T02:38:36.727Z,0.99
2022-12-20T02:41:10.023Z,0.98
2022-12-20T02:43:57.843Z,0.94
2022-12-20T02:46:27.390Z,0.92
2022-12-20T02:48:58.302Z,0.85
2022-12-20T02:51:28.863Z,0.85
2022-12-20T02:53:55.983Z,0.86
2022-12-20T02:56:33.630Z,0.85
2022-12-20T02:59:20.180Z,0.84
2022-12-20T03:01:53.025Z,0.83
2022-12-20T03:04:23.572Z,0.82
2022-12-20T03:07:05.179Z,0.82
2022-12-20T03:09:33.986Z,0.82
2022-12-20T03:12:01.091Z,0.83
2022-12-20T03:14:28.324Z,0.79
2022-12-20T03:16:55.044Z,0.75
2022-12-20T03:19:21.965Z,0.78
2022-12-20T03:21:48.657Z,0.74
2022-12-20T03:24:15.348Z,0.75
2022-12-20T03:26:43.489Z,0.68
2022-12-20T03:29:10.529Z,0.67
2022-12-20T03:31:37.297Z,0.61
2022-12-20T03:34:04.309Z,0.60
2022-12-20T03:36:31.098Z,0.59
2022-12-20T03:38:57.914Z,0.57
2022-12-20T03:41:25.846Z,0.59
2022-12-20T03:43:52.980Z,0.60
2022-12-20T03:46:19.863Z,0.59
2022-12-20T03:48:46.485Z,0.60
2022-12-20T03:51:13.116Z,0.60
2022-12-20T03:53:39.738Z,0.58
2022-12-20T03:56:06.524Z,0.56
2022-12-20T03:58:33.215Z,0.56
2022-12-20T04:00:59.779Z,0.57
2022-12-20T04:03:26.470Z,0.56
2022-12-20T04:05:53.122Z,0.60
2022-12-20T04:08:19.689Z,0.64
2022-12-20T04:11:04.955Z,0.68
2022-12-20T04:13:31.557Z,0.73
2022-12-20T04:16:00.664Z,0.77
2022-12-20T04:18:28.066Z,0.79
2022-12-20T04:20:55.235Z,0.85
2022-12-20T04:23:21.996Z,0.86
2022-12-20T04:25:48.743Z,0.85
2022-12-20T04:28:15.360Z,0.89
2022-12-20T04:30:41.952Z,0.97
2022-12-20T04:33:08.641Z,0.97
2022-12-20T04:35:35.256Z,0.94
2022-12-20T04:38:01.894Z,0.98
2022-12-20T04:40:28.498Z,0.99
2022-12-20T04:42:55.010Z,0.99
2022-12-20T04:45:21.559Z,0.95
2022-12-20T04:47:48.145Z,0.96
2022-12-20T04:50:14.824Z,0.95
2022-12-20T04:53:00.121Z,0.97
2022-12-20T04:55:26.684Z,0.98
2022-12-20T04:57:53.438Z,1.01
2022-12-20T05:00:21.365Z,1.02
2022-12-20T05:02:48.051Z,1.02
2022-12-20T05:05:14.749Z,1.04
2022-12-20T05:07:41.345Z,1.04
2022-12-20T05:10:08.408Z,1.06
2022-12-20T05:12:34.930Z,1.13
2022-12-20T05:15:01.830Z,1.16
2022-12-20T05:17:28.490Z,1.17
2022-12-20T05:19:55.019Z,1.20
2022-12-20T05:22:40.244Z,1.25
2022-12-20T05:25:25.910Z,1.27
2022-12-20T05:27:52.493Z,1.28
2022-12-20T05:30:19.186Z,1.27
2022-12-20T05:32:45.798Z,1.29
2022-12-20T05:35:12.381Z,1.32
2022-12-20T05:37:39.047Z,1.36
2022-12-20T05:40:06.373Z,1.40
2022-12-20T05:42:32.928Z,1.42
2022-12-20T05:45:00.847Z,1.45
2022-12-20T05:47:27.850Z,1.45
2022-12-20T05:49:55.800Z,1.46
2022-12-20T05:52:22.362Z,1.48
2022-12-20T05:54:48.873Z,1.50
2022-12-20T05:57:16.132Z,1.53
2022-12-20T05:59:42.826Z,1.56
2022-12-20T06:02:10.780Z,1.60
2022-12-20T06:04:38.396Z,1.67
2022-12-20T06:07:05.483Z,1.69
2022-12-20T06:09:32.721Z,1.67
2022-12-20T06:11:59.471Z,1.69
2022-12-20T06:14:26.014Z,1.67
2022-12-20T06:16:53.271Z,1.67
2022-12-20T06:19:21.828Z,1.69
2022-12-20T06:21:48.551Z,1.72
2022-12-20T06:24:15.529Z,1.77
2022-12-20T06:26:42.141Z,1.79
2022-12-20T06:29:14.115Z,1.83
2022-12-20T06:31:41.337Z,1.88
2022-12-20T06:34:07.992Z,1.87
2022-12-20T06:36:34.627Z,1.84
2022-12-20T06:39:06.135Z,1.80
2022-12-20T06:41:34.846Z,1.77
2022-12-20T06:44:01.513Z,1.78
2022-12-20T06:46:28.257Z,1.81
2022-12-20T06:48:56.720Z,1.89
2022-12-20T06:51:23.340Z,1.92
2022-12-20T06:53:49.922Z,1.94
2022-12-20T06:56:16.733Z,1.92
2022-12-20T06:58:43.334Z,1.93
2022-12-20T07:01:09.916Z,1.93
2022-12-20T07:03:36.683Z,1.98
2022-12-20T07:06:03.399Z,2.01
2022-12-20T07:08:30.110Z,2.00
2022-12-20T07:10:56.950Z,2.04
2022-12-20T07:13:23.571Z,2.04
2022-12-20T07:15:57.214Z,2.05
2022-12-20T07:18:23.810Z,2.06
2022-12-20T07:20:52.616Z,2.05
2022-12-20T07:23:19.233Z,2.06
2022-12-20T07:25:56.573Z,2.04
2022-12-20T07:28:24.133Z,2.02
2022-12-20T07:30:53.467Z,1.98
2022-12-20T07:33:20.394Z,1.95
2022-12-20T07:35:52.403Z,1.96
2022-12-20T07:38:20.970Z,1.99
2022-12-20T07:40:47.666Z,2.01
2022-12-20T07:43:14.223Z,2.04
2022-12-20T07:45:41.133Z,2.05
2022-12-20T07:48:13.742Z,2.05
2022-12-20T07:50:42.360Z,2.06
2022-12-20T07:53:10.465Z,2.07
2022-12-20T07:55:40.569Z,2.07
2022-12-20T07:58:08.885Z,2.04
2022-12-20T08:00:37.310Z,2.08
2022-12-20T08:03:08.694Z,2.12
2022-12-20T08:05:41.186Z,2.11
2022-12-20T08:08:08.707Z,2.15
2022-12-20T08:10:37.708Z,2.18
2022-12-20T08:13:06.251Z,2.24
2022-12-20T08:15:35.025Z,2.29
2022-12-20T08:18:02.431Z,2.29
2022-12-20T08:20:29.108Z,2.30
2022-12-20T08:22:55.713Z,2.32
2022-12-20T08:25:23.221Z,2.38
2022-12-20T08:27:49.776Z,2.43
2022-12-20T08:30:16.626Z,2.49
2022-12-20T08:32:43.224Z,2.52
2022-12-20T08:35:10.624Z,2.58
2022-12-20T08:37:37.201Z,2.61
2022-12-20T08:40:04.289Z,2.61
2022-12-20T08:42:30.864Z,2.61
2022-12-20T08:44:57.573Z,2.63
2022-12-20T08:47:24.243Z,2.68
2022-12-20T08:49:51.110Z,2.71
2022-12-20T08:52:17.720Z,2.74
2022-12-20T08:54:44.514Z,2.63
2022-12-20T08:57:11.122Z,2.63
2022-12-20T08:59:37.744Z,2.67
2022-12-20T09:02:04.712Z,2.62
2022-12-20T09:04:31.426Z,2.63
2022-12-20T09:06:57.998Z,2.61
2022-12-20T09:09:24.516Z,2.68
2022-12-20T09:11:51.084Z,2.76
2022-12-20T09:14:18.486Z,2.80
2022-12-20T09:16:45.116Z,2.79
2022-12-20T09:19:13.829Z,2.82
2022-12-20T09:21:40.458Z,2.87
2022-12-20T09:24:07.447Z,2.89
2022-12-20T09:26:35.321Z,2.92
2022-12-20T09:29:02.483Z,2.94
2022-12-20T09:31:29.139Z,3.02
2022-12-20T09:33:58.093Z,3.07
2022-12-20T09:36:26.718Z,3.09
2022-12-20T09:38:54.300Z,3.06
2022-12-20T09:41:22.975Z,3.09
2022-12-20T09:43:50.274Z,3.11
2022-12-20T09:46:17.414Z,3.12
2022-12-20T09:48:45.057Z,3.13
2022-12-20T09:51:17.323Z,3.17
2022-12-20T09:53:59.095Z,3.22
2022-12-20T09:56:35.161Z,3.28
2022-12-20T09:59:11.515Z,3.34
2022-12-20T10:01:40.397Z,3.38
2022-12-20T10:04:33.889Z,3.44
2022-12-20T10:07:06.636Z,3.52
2022-12-20T10:10:05.556Z,3.63
2022-12-20T10:12:58.012Z,3.72
2022-12-20T10:15:36.879Z,3.83
2022-12-20T10:18:06.451Z,3.94
2022-12-20T10:20:45.205Z,4.01
2022-12-20T10:23:35.030Z,4.07
2022-12-20T10:26:01.815Z,4.13
2022-12-20T10:28:33.961Z,4.21
2022-12-20T10:31:05.256Z,4.25
2022-12-20T10:33:32.058Z,4.27
2022-12-20T10:36:26.950Z,4.35
2022-12-20T10:38:59.045Z,4.40
2022-12-20T10:41:28.949Z,4.45
2022-12-20T10:44:01.542Z,4.54
2022-12-20T10:46:41.747Z,4.66
2022-12-20T10:49:36.886Z,4.79
2022-12-20T10:52:09.549Z,4.91
2022-12-20T10:54:37.362Z,4.96
2022-12-20T10:57:15.063Z,4.99
2022-12-20T10:59:58.904Z,5.03
2022-12-20T11:02:40.849Z,5.11
2022-12-20T11:05:11.029Z,5.19
2022-12-20T11:10:44.671Z,5.37
2022-12-20T11:13:21.845Z,5.43
2022-12-20T11:15:51.393Z,5.44
2022-12-20T11:18:33.318Z,5.48
2022-12-20T11:21:09.628Z,5.53
2022-12-20T11:24:00.182Z,5.57
2022-12-20T11:26:58.480Z,5.68
2022-12-20T11:30:02.822Z,5.78
2022-12-20T11:32:48.601Z,5.84
2022-12-20T11:35:26.618Z,5.95
2022-12-20T11:38:09.786Z,6.04
2022-12-20T11:41:03.178Z,6.10
2022-12-20T11:44:08.186Z,6.14
2022-12-20T11:46:46.942Z,6.26
2022-12-20T11:49:35.153Z,6.45
2022-12-20T11:52:10.890Z,6.60
2022-12-20T11:55:03.836Z,6.71
2022-12-20T11:58:09.035Z,6.85
2022-12-20T12:00:27.584Z,6.93
2022-12-20T12:03:10.976Z,7.01
2022-12-20T12:05:44.518Z,7.10
2022-12-20T12:08:21.877Z,7.47
2022-12-20T12:11:20.084Z,7.86
2022-12-20T12:13:56.979Z,8.10
2022-12-20T12:16:33.991Z,8.14
2022-12-20T12:19:01.555Z,8.24
2022-12-20T12:21:37.297Z,8.30
2022-12-20T12:24:30.391Z,8.36
2022-12-20T12:26:59.772Z,8.47
2022-12-20T12:29:29.879Z,8.56
2022-12-20T12:31:59.627Z,8.56
2022-12-20T12:34:59.798Z,8.59
2022-12-20T12:37:54.958Z,8.56
2022-12-20T12:40:40.269Z,8.44
2022-12-20T12:43:50.744Z,8.42
2022-12-20T12:46:20.459Z,8.43
2022-12-20T12:49:13.309Z,8.48
2022-12-20T12:51:44.251Z,8.52
2022-12-20T12:54:28.115Z,8.60
2022-12-20T12:57:03.332Z,8.63
2022-12-20T12:59:32.888Z,8.71
2022-12-20T13:02:14.798Z,8.79
2022-12-20T13:05:10.718Z,8.81
2022-12-20T13:07:37.153Z,8.81
2022-12-20T13:10:09.851Z,8.80
2022-12-20T13:12:36.451Z,8.78
2022-12-20T13:15:21.304Z,8.78
2022-12-20T13:17:48.008Z,8.78
2022-12-20T13:20:24.913Z,8.80
2022-12-20T13:23:23.938Z,8.75
2022-12-20T13:25:51.881Z,8.73
2022-12-20T13:28:24.691Z,8.73
2022-12-20T13:31:00.721Z,8.75
2022-12-20T13:33:46.986Z,8.75
2022-12-20T13:36:16.552Z,8.78
2022-12-20T13:38:43.081Z,8.80
2022-12-20T13:41:36.402Z,8.79
2022-12-20T13:44:15.310Z,8.75
2022-12-20T13:47:01.480Z,8.68
2022-12-20T13:49:34.012Z,8.65
2022-12-20T13:52:34.154Z,8.65
2022-12-20T13:55:08.174Z,8.59
2022-12-20T13:57:46.008Z,8.56
2022-12-20T14:00:25.540Z,8.54
2022-12-20T14:02:53.480Z,8.51
2022-12-20T14:05:26.593Z,8.46
2022-12-20T14:08:00.705Z,8.45
2022-12-20T14:10:32.200Z,8.42
2022-12-20T14:12:58.915Z,8.36
2022-12-20T14:15:35.676Z,8.27
2022-12-20T14:18:07.210Z,8.23
2022-12-20T14:20:36.453Z,8.18
2022-12-20T14:23:09.246Z,8.13
2022-12-20T14:25:44.378Z,8.08
2022-12-20T14:28:26.516Z,8.05
2022-12-20T14:30:55.254Z,8.00
2022-12-20T14:33:30.018Z,7.96
2022-12-20T14:35:57.278Z,7.93
2022-12-20T14:38:30.746Z,7.92
2022-12-20T14:40:57.630Z,7.91
2022-12-20T14:43:33.326Z,7.91
2022-12-20T14:46:17.868Z,7.88
2022-12-20T14:48:45.297Z,7.85
2022-12-20T14:51:13.590Z,7.81
2022-12-20T14:53:41.182Z,7.82
2022-12-20T14:56:17.598Z,7.81
2022-12-20T14:58:44.269Z,7.81
2022-12-20T15:01:31.185Z,7.77
2022-12-20T15:03:59.892Z,7.75
2022-12-20T15:06:37.692Z,7.71
2022-12-20T15:09:05.452Z,7.71
2022-12-20T15:11:34.576Z,7.69
2022-12-20T15:14:01.667Z,7.73
2022-12-20T15:16:30.071Z,7.71
2022-12-20T15:19:04.768Z,7.73
2022-12-20T15:21:45.706Z,7.77
2022-12-20T15:24:19.766Z,7.81
2022-12-20T15:26:46.472Z,7.82
2022-12-20T15:29:18.213Z,7.81
2022-12-20T15:31:46.342Z,7.77
2022-12-20T15:34:27.350Z,7.76
2022-12-20T15:36:54.014Z,7.74
2022-12-20T15:39:21.612Z,7.72
2022-12-20T15:41:50.074Z,7.69
2022-12-20T15:44:21.127Z,7.64
2022-12-20T15:46:48.489Z,7.62
2022-12-20T15:49:18.878Z,7.56
2022-12-20T15:51:46.761Z,7.47
2022-12-20T15:54:16.348Z,7.42
2022-12-20T15:56:43.152Z,7.43
2022-12-20T15:59:40.368Z,7.42
2022-12-20T16:01:59.254Z,7.39
2022-12-20T16:04:25.935Z,7.33
2022-12-20T16:06:55.391Z,7.26
2022-12-20T16:09:22.280Z,7.22
2022-12-20T16:11:48.870Z,7.19
2022-12-20T16:14:17.802Z,7.19
2022-12-20T16:16:45.615Z,7.20
2022-12-20T16:19:12.289Z,7.21
2022-12-20T16:21:45.777Z,7.19
2022-12-20T16:24:15.159Z,7.16
2022-12-20T16:26:42.254Z,7.11
2022-12-20T16:29:08.882Z,7.04
2022-12-20T16:31:37.829Z,6.96
2022-12-20T16:34:25.948Z,6.86
2022-12-20T16:36:52.521Z,6.79
2022-12-20T16:39:19.527Z,6.75
2022-12-20T16:41:46.094Z,6.75
2022-12-20T16:44:17.255Z,6.74
2022-12-20T16:46:43.860Z,6.76
2022-12-20T16:49:19.389Z,6.78
2022-12-20T16:51:48.261Z,6.78
2022-12-20T16:54:21.452Z,6.82
2022-12-20T16:56:52.129Z,6.81
2022-12-20T16:59:21.285Z,6.83
2022-12-20T17:25:36.063Z,6.60
2022-12-20T17:28:02.736Z,6.50
2022-12-20T17:30:29.403Z,6.49
2022-12-20T17:32:56.003Z,6.51
2022-12-20T17:35:32.692Z,6.49
2022-12-20T17:38:00.499Z,6.52
2022-12-20T17:40:28.522Z,6.53
2022-12-20T17:42:55.331Z,6.55
2022-12-20T17:45:32.481Z,6.58
2022-12-20T17:47:59.809Z,6.59
2022-12-20T17:50:27.745Z,6.61
2022-12-20T17:52:54.848Z,6.66
2022-12-20T17:55:28.420Z,6.65
2022-12-20T17:57:55.608Z,6.65
2022-12-20T18:00:25.252Z,6.65
2022-12-20T18:02:53.930Z,6.60
2022-12-20T18:05:22.267Z,6.59
2022-12-20T18:07:53.597Z,6.57
2022-12-20T18:10:22.262Z,6.60
2022-12-20T18:12:49.581Z,6.62
2022-12-20T18:15:16.929Z,6.62
2022-12-20T18:17:44.555Z,6.62
2022-12-20T18:20:12.423Z,6.64
2022-12-20T18:22:39.039Z,6.58
2022-12-20T18:25:08.384Z,6.63
2022-12-20T18:27:42.868Z,6.70
2022-12-20T18:30:12.204Z,6.74
2022-12-20T18:32:39.841Z,6.71
2022-12-20T18:35:07.333Z,6.74
2022-12-20T18:37:33.953Z,6.73
2022-12-20T18:40:00.522Z,6.69
2022-12-20T18:42:27.165Z,6.69
2022-12-20T18:44:53.803Z,6.68
2022-12-20T18:47:20.425Z,6.65
2022-12-20T18:49:47.017Z,6.64
2022-12-20T18:52:14.153Z,6.65
2022-12-20T18:54:40.734Z,6.69
2022-12-20T18:57:07.441Z,6.67
2022-12-20T18:59:34.864Z,6.64
2022-12-20T19:02:01.759Z,6.66
2022-12-20T19:04:28.608Z,6.67
2022-12-20T19:06:55.262Z,6.69
2022-12-20T19:09:22.541Z,6.70
2022-12-20T19:11:56.222Z,6.67
2022-12-20T19:14:23.929Z,6.71
2022-12-20T19:16:51.813Z,6.72
2022-12-20T19:19:18.488Z,6.78
2022-12-20T19:21:45.197Z,6.77
2022-12-20T19:24:12.355Z,6.78
2022-12-20T19:26:39.680Z,6.87
2022-12-20T19:29:07.475Z,6.87
2022-12-20T19:31:37.409Z,6.88
2022-12-20T19:34:07.864Z,7.08
2022-12-20T19:36:45.875Z,7.06
2022-12-20T19:39:23.565Z,7.22
2022-12-20T19:44:37.339Z,7.19
2022-12-20T19:47:06.739Z,7.36
2022-12-20T19:49:35.434Z,7.40
2022-12-20T19:52:02.072Z,7.44
2022-12-20T19:54:29.034Z,7.41
2022-12-20T19:56:55.694Z,7.44
2022-12-20T19:59:22.381Z,7.57
2022-12-20T20:01:49.245Z,7.54
2022-12-20T20:04:16.341Z,7.54
2022-12-20T20:06:43.057Z,7.53
2022-12-20T20:09:09.699Z,7.50
2022-12-20T20:11:36.463Z,7.52
2022-12-20T20:14:03.974Z,7.58
2022-12-20T20:16:30.624Z,7.61
2022-12-20T20:18:57.248Z,7.67
2022-12-20T20:21:24.355Z,7.72
2022-12-20T20:23:52.447Z,7.73
2022-12-20T20:26:23.067Z,7.63
2022-12-20T20:28:50.484Z,7.71
2022-12-20T20:31:18.790Z,7.81
2022-12-20T20:33:45.923Z,7.75
2022-12-20T20:36:15.354Z,7.78
2022-12-20T20:38:41.964Z,7.78
2022-12-20T20:41:08.994Z,7.78
2022-12-20T20:43:37.859Z,7.86
2022-12-20T20:46:06.859Z,7.86
2022-12-20T20:48:34.230Z,7.86
2022-12-20T20:51:00.872Z,7.80
2022-12-20T20:53:32.975Z,7.83
2022-12-20T20:56:00.229Z,7.81
2022-12-20T20:58:27.095Z,7.79
2022-12-20T21:00:59.016Z,7.82
2022-12-20T21:03:27.407Z,7.79
2022-12-20T21:08:41.228Z,7.89
2022-12-20T21:11:09.177Z,7.90
2022-12-20T21:13:36.103Z,7.91
2022-12-20T21:16:11.684Z,7.88
2022-12-20T21:18:38.324Z,7.90
2022-12-20T21:21:06.924Z,7.88
2022-12-20T21:23:33.504Z,7.90
2022-12-20T21:26:00.138Z,8.00
2022-12-20T21:28:27.731Z,8.03
2022-12-20T21:31:01.822Z,8.05
2022-12-20T21:33:28.978Z,8.02
2022-12-20T21:36:11.618Z,8.05
2022-12-20T21:38:38.241Z,8.04
2022-12-20T21:41:10.729Z,8.09
2022-12-20T21:43:37.702Z,8.05
2022-12-20T21:46:04.569Z,8.05
2022-12-20T21:48:31.186Z,8.10
2022-12-20T21:51:06.070Z,8.10
2022-12-20T21:53:33.570Z,8.10
2022-12-20T21:56:01.309Z,8.10
2022-12-20T21:58:29.880Z,8.04
2022-12-20T22:00:57.336Z,8.00
2022-12-20T22:03:25.098Z,8.01
2022-12-20T22:05:53.933Z,8.01
2022-12-20T22:08:22.104Z,8.02
2022-12-20T22:10:51.532Z,8.01
2022-12-20T22:13:18.175Z,8.04
2022-12-20T22:15:44.726Z,8.18
2022-12-20T22:18:11.411Z,8.20
2022-12-20T22:20:37.995Z,8.16
2022-12-20T22:23:05.433Z,8.23
2022-12-20T22:25:32.015Z,8.17
2022-12-20T22:27:58.652Z,8.17
2022-12-20T22:30:25.250Z,8.18
2022-12-20T22:32:51.760Z,8.25
2022-12-20T22:35:22.759Z,8.35
2022-12-20T22:37:50.529Z,8.29
2022-12-20T22:40:17.436Z,8.28
2022-12-20T22:42:44.059Z,8.30
2022-12-20T22:45:11.487Z,8.32
2022-12-20T22:47:40.541Z,8.27
2022-12-20T22:50:08.188Z,8.27
2022-12-20T22:52:35.259Z,8.34
2022-12-20T22:55:02.946Z,8.30
2022-12-20T22:57:29.608Z,8.35
2022-12-20T22:59:58.781Z,8.29
2022-12-20T23:02:26.445Z,8.30
2022-12-20T23:04:53.371Z,8.33
2022-12-20T23:07:21.458Z,8.33
2022-12-20T23:09:48.790Z,8.30
2022-12-20T23:12:33.953Z,8.27
2022-12-20T23:15:19.047Z,8.30
2022-12-20T23:17:45.633Z,8.32
2022-12-20T23:20:31.284Z,8.31
2022-12-20T23:22:57.918Z,8.34
2022-12-20T23:25:25.473Z,8.32
2022-12-20T23:27:52.375Z,8.34
2022-12-20T23:30:21.632Z,8.34
2022-12-20T23:32:49.051Z,8.32
2022-12-20T23:35:17.997Z,8.38
2022-12-20T23:37:46.071Z,8.36
2022-12-20T23:40:14.074Z,8.36
2022-12-20T23:42:40.635Z,8.34
2022-12-20T23:45:07.836Z,8.35
2022-12-20T23:47:34.407Z,8.39
2022-12-20T23:50:00.989Z,8.35
2022-12-20T23:52:27.617Z,8.37
2022-12-20T23:54:54.450Z,8.35
2022-12-20T23:57:21.008Z,8.37
2022-12-20T23:59:47.587Z,8.34
